หน้าหลัก
METAR-TAF:

METAR-TAF

ท่าอากาศยาน :

Cranwell, อังกฤษ

ละติจูด: 53-02N, ลองจิจูด: 000-30W, ความสูง: 67 ม.

การสังเกตสภาพอากาศปัจจุบัน

รายงานได้ทำขึ้นเมื่อ 48 นาทีที่แล้ว ณ เวลา 04:20 UTC
ลม 4 นอตจากตะวันตก
อุณหภูมิ 6°C
ความชื้น 93%
ความกดอากาศ 1014 hPa
ทัศนวิสัย 10 กม. หรือมากกว่า

METAR: EGYD 130420Z AUTO 26004KT 9999 NCD 06/05 Q1014

เวลา: 06:08 (05:08 UTC)

การพยากรณ์

รายงานได้ทำขึ้นเมื่อ 15 ชั่วโมงและ 49 นาทีที่แล้ว ณ เวลา 13:19 UTC
การพยากรณ์มีผลตั้งแต่วันที่ 12 ณ เวลา 15 UTC จนถึงวันที่ 12 ณ เวลา 18 UTC
ลม 8 นอตจากตะวันตก
ทัศนวิสัย 10 กม. หรือมากกว่า
มีเมฆน้อยที่ความสูง 3500 ฟุต

TAF: EGYD 121319Z 1215/1218 28008KT 9999 FEW035

สังเกตการณ์สภาพอากาศและพยากรณ์อากาศของสนามบินมากกว่า 4000 แห่ง (รายงาน METAR และ TAF).

สถานีที่ดูได้จะแสดงไว้ด้วยจุดสีเหลืองและสีแดงบนแผนที่.

เลื่อนเมาส์ไปเหนือจุดเพื่อดูชื่อสถานี.

แล้วคลิกเพื่อดูสังเกตการณ์และการพยากรณ์สภาพอากาศ.

ในการเปลี่ยนแผนที่: คลิกที่ปุ่มสีเขียวที่มีกากบาทสีดำเพื่อซูมเข้า; ที่ปุ่มสีเขียวที่มีขีดเพื่อซูมออก; หรือที่ลูกศรสีเขียวเพื่อไปยังแผนที่ที่อยู่ติดกัน.


METAR-TAF: